sensor_id;sensor_type;location;lat;lon;timestamp;P1;durP1;ratioP1;P2;durP2;ratioP2
39982;SDS011;25670;44.782;10.356;2023-05-07T00:01:19;12.20;;;11.35;;
39982;SDS011;25670;44.782;10.356;2023-05-07T00:03:45;12.50;;;11.48;;
39982;SDS011;25670;44.782;10.356;2023-05-07T00:06:11;13.35;;;12.38;;
39982;SDS011;25670;44.782;10.356;2023-05-07T00:08:38;13.65;;;12.40;;
39982;SDS011;25670;44.782;10.356;2023-05-07T00:11:04;11.98;;;11.13;;
39982;SDS011;25670;44.782;10.356;2023-05-07T00:13:30;12.23;;;11.43;;
39982;SDS011;25670;44.782;10.356;2023-05-07T00:16:05;13.18;;;12.18;;
39982;SDS011;25670;44.782;10.356;2023-05-07T00:18:31;13.27;;;12.25;;
39982;SDS011;25670;44.782;10.356;2023-05-07T00:20:57;12.13;;;11.07;;
39982;SDS011;25670;44.782;10.356;2023-05-07T00:23:24;12.55;;;11.32;;
39982;SDS011;25670;44.782;10.356;2023-05-07T00:25:50;11.60;;;10.75;;
39982;SDS011;25670;44.782;10.356;2023-05-07T00:28:16;12.55;;;11.60;;
39982;SDS011;25670;44.782;10.356;2023-05-07T00:30:43;12.35;;;11.43;;
39982;SDS011;25670;44.782;10.356;2023-05-07T00:33:09;13.80;;;12.48;;
39982;SDS011;25670;44.782;10.356;2023-05-07T00:35:35;13.75;;;12.50;;
39982;SDS011;25670;44.782;10.356;2023-05-07T00:38:02;12.63;;;11.52;;
39982;SDS011;25670;44.782;10.356;2023-05-07T00:40:28;14.38;;;12.88;;
39982;SDS011;25670;44.782;10.356;2023-05-07T00:42:54;13.98;;;12.55;;
39982;SDS011;25670;44.782;10.356;2023-05-07T00:45:22;13.75;;;12.75;;
39982;SDS011;25670;44.782;10.356;2023-05-07T00:47:56;14.07;;;12.77;;
39982;SDS011;25670;44.782;10.356;2023-05-07T00:52:51;14.80;;;13.45;;
39982;SDS011;25670;44.782;10.356;2023-05-07T00:55:18;14.35;;;13.13;;
39982;SDS011;25670;44.782;10.356;2023-05-07T00:57:45;15.18;;;13.57;;
39982;SDS011;25670;44.782;10.356;2023-05-07T01:00:12;14.80;;;13.35;;
39982;SDS011;25670;44.782;10.356;2023-05-07T01:02:39;14.35;;;12.93;;
39982;SDS011;25670;44.782;10.356;2023-05-07T01:05:05;15.88;;;14.55;;
39982;SDS011;25670;44.782;10.356;2023-05-07T01:07:34;15.45;;;13.85;;
39982;SDS011;25670;44.782;10.356;2023-05-07T01:10:02;14.18;;;13.07;;
39982;SDS011;25670;44.782;10.356;2023-05-07T01:12:30;15.98;;;14.35;;
39982;SDS011;25670;44.782;10.356;2023-05-07T01:14:57;14.43;;;13.23;;
39982;SDS011;25670;44.782;10.356;2023-05-07T01:17:24;14.10;;;13.00;;
39982;SDS011;25670;44.782;10.356;2023-05-07T01:19:51;15.02;;;13.93;;
39982;SDS011;25670;44.782;10.356;2023-05-07T01:22:31;13.85;;;12.57;;
39982;SDS011;25670;44.782;10.356;2023-05-07T01:24:58;13.32;;;12.23;;
39982;SDS011;25670;44.782;10.356;2023-05-07T01:27:27;14.05;;;12.68;;
39982;SDS011;25670;44.782;10.356;2023-05-07T01:29:54;14.60;;;13.60;;
39982;SDS011;25670;44.782;10.356;2023-05-07T01:32:28;14.95;;;13.85;;
39982;SDS011;25670;44.782;10.356;2023-05-07T01:35:09;16.05;;;14.70;;
39982;SDS011;25670;44.782;10.356;2023-05-07T01:37:38;14.70;;;13.27;;
39982;SDS011;25670;44.782;10.356;2023-05-07T01:40:06;17.33;;;15.45;;
39982;SDS011;25670;44.782;10.356;2023-05-07T01:42:33;15.32;;;14.02;;
39982;SDS011;25670;44.782;10.356;2023-05-07T01:45:00;14.25;;;12.80;;
39982;SDS011;25670;44.782;10.356;2023-05-07T01:47:26;15.88;;;14.32;;
39982;SDS011;25670;44.782;10.356;2023-05-07T01:49:52;14.95;;;13.57;;
39982;SDS011;25670;44.782;10.356;2023-05-07T01:52:19;14.07;;;12.98;;
39982;SDS011;25670;44.782;10.356;2023-05-07T01:54:45;15.00;;;13.52;;
39982;SDS011;25670;44.782;10.356;2023-05-07T01:57:11;15.70;;;14.48;;
39982;SDS011;25670;44.782;10.356;2023-05-07T01:59:38;16.33;;;14.82;;
39982;SDS011;25670;44.782;10.356;2023-05-07T02:02:04;14.55;;;13.30;;
39982;SDS011;25670;44.782;10.356;2023-05-07T02:04:32;22.08;;;19.75;;
39982;SDS011;25670;44.782;10.356;2023-05-07T02:06:58;18.30;;;16.52;;
39982;SDS011;25670;44.782;10.356;2023-05-07T02:09:25;22.90;;;20.40;;
39982;SDS011;25670;44.782;10.356;2023-05-07T02:11:51;23.50;;;19.65;;
39982;SDS011;25670;44.782;10.356;2023-05-07T02:14:19;22.75;;;20.13;;
39982;SDS011;25670;44.782;10.356;2023-05-07T02:16:46;28.15;;;24.27;;
39982;SDS011;25670;44.782;10.356;2023-05-07T02:19:13;40.90;;;26.98;;
39982;SDS011;25670;44.782;10.356;2023-05-07T02:21:40;33.20;;;23.95;;
39982;SDS011;25670;44.782;10.356;2023-05-07T02:24:06;24.17;;;20.90;;
39982;SDS011;25670;44.782;10.356;2023-05-07T02:26:32;35.42;;;27.33;;
39982;SDS011;25670;44.782;10.356;2023-05-07T02:29:00;37.33;;;30.58;;
39982;SDS011;25670;44.782;10.356;2023-05-07T02:31:26;40.08;;;31.00;;
39982;SDS011;25670;44.782;10.356;2023-05-07T02:33:52;42.50;;;30.45;;
39982;SDS011;25670;44.782;10.356;2023-05-07T02:36:19;40.47;;;30.95;;
39982;SDS011;25670;44.782;10.356;2023-05-07T02:38:58;39.83;;;31.77;;
39982;SDS011;25670;44.782;10.356;2023-05-07T02:41:24;41.25;;;32.75;;
39982;SDS011;25670;44.782;10.356;2023-05-07T02:43:50;45.53;;;32.83;;
39982;SDS011;25670;44.782;10.356;2023-05-07T02:46:17;44.42;;;31.95;;
39982;SDS011;25670;44.782;10.356;2023-05-07T02:48:47;39.35;;;30.08;;
39982;SDS011;25670;44.782;10.356;2023-05-07T02:51:13;37.08;;;29.10;;
39982;SDS011;25670;44.782;10.356;2023-05-07T02:53:41;41.15;;;29.02;;
39982;SDS011;25670;44.782;10.356;2023-05-07T02:56:08;36.75;;;28.10;;
39982;SDS011;25670;44.782;10.356;2023-05-07T02:58:34;19.40;;;17.50;;
39982;SDS011;25670;44.782;10.356;2023-05-07T03:01:01;19.70;;;14.65;;
39982;SDS011;25670;44.782;10.356;2023-05-07T03:03:34;19.60;;;12.93;;
39982;SDS011;25670;44.782;10.356;2023-05-07T03:06:01;13.13;;;11.88;;
39982;SDS011;25670;44.782;10.356;2023-05-07T03:08:27;12.43;;;11.45;;
39982;SDS011;25670;44.782;10.356;2023-05-07T03:10:54;13.70;;;12.55;;
39982;SDS011;25670;44.782;10.356;2023-05-07T03:13:20;9.73;;;8.85;;
39982;SDS011;25670;44.782;10.356;2023-05-07T03:15:47;8.57;;;7.82;;
39982;SDS011;25670;44.782;10.356;2023-05-07T03:18:13;9.80;;;9.10;;
39982;SDS011;25670;44.782;10.356;2023-05-07T03:20:40;9.15;;;8.35;;
39982;SDS011;25670;44.782;10.356;2023-05-07T03:23:06;8.63;;;7.72;;
39982;SDS011;25670;44.782;10.356;2023-05-07T03:25:32;11.07;;;10.00;;
39982;SDS011;25670;44.782;10.356;2023-05-07T03:27:59;7.90;;;7.13;;
39982;SDS011;25670;44.782;10.356;2023-05-07T03:30:33;7.97;;;7.35;;
39982;SDS011;25670;44.782;10.356;2023-05-07T03:33:00;7.80;;;7.30;;
39982;SDS011;25670;44.782;10.356;2023-05-07T03:35:26;10.00;;;9.00;;
39982;SDS011;25670;44.782;10.356;2023-05-07T03:37:52;8.63;;;7.90;;
39982;SDS011;25670;44.782;10.356;2023-05-07T03:40:20;8.35;;;7.85;;
39982;SDS011;25670;44.782;10.356;2023-05-07T03:42:50;7.32;;;6.82;;
39982;SDS011;25670;44.782;10.356;2023-05-07T03:45:18;8.52;;;7.85;;
39982;SDS011;25670;44.782;10.356;2023-05-07T03:47:51;9.60;;;7.07;;
39982;SDS011;25670;44.782;10.356;2023-05-07T03:50:20;7.75;;;7.25;;
39982;SDS011;25670;44.782;10.356;2023-05-07T03:52:46;10.60;;;9.20;;
39982;SDS011;25670;44.782;10.356;2023-05-07T03:55:14;9.90;;;9.23;;
39982;SDS011;25670;44.782;10.356;2023-05-07T03:57:47;8.73;;;7.93;;
39982;SDS011;25670;44.782;10.356;2023-05-07T04:00:13;8.05;;;7.15;;
39982;SDS011;25670;44.782;10.356;2023-05-07T04:02:48;7.53;;;7.03;;
39982;SDS011;25670;44.782;10.356;2023-05-07T04:05:21;8.02;;;7.50;;
39982;SDS011;25670;44.782;10.356;2023-05-07T04:07:50;7.47;;;6.95;;
39982;SDS011;25670;44.782;10.356;2023-05-07T04:10:22;10.48;;;7.65;;
39982;SDS011;25670;44.782;10.356;2023-05-07T04:12:51;8.15;;;7.00;;
39982;SDS011;25670;44.782;10.356;2023-05-07T04:15:21;7.10;;;6.57;;
39982;SDS011;25670;44.782;10.356;2023-05-07T04:17:47;8.88;;;6.20;;
39982;SDS011;25670;44.782;10.356;2023-05-07T04:20:15;6.82;;;6.22;;
39982;SDS011;25670;44.782;10.356;2023-05-07T04:22:45;5.88;;;5.57;;
39982;SDS011;25670;44.782;10.356;2023-05-07T04:25:12;6.93;;;6.38;;
39982;SDS011;25670;44.782;10.356;2023-05-07T04:27:38;7.15;;;6.25;;
39982;SDS011;25670;44.782;10.356;2023-05-07T04:30:05;7.15;;;6.55;;
39982;SDS011;25670;44.782;10.356;2023-05-07T04:32:36;6.43;;;5.93;;
39982;SDS011;25670;44.782;10.356;2023-05-07T04:35:03;7.70;;;6.75;;
39982;SDS011;25670;44.782;10.356;2023-05-07T04:37:31;7.97;;;7.43;;
39982;SDS011;25670;44.782;10.356;2023-05-07T04:39:58;8.57;;;7.57;;
39982;SDS011;25670;44.782;10.356;2023-05-07T04:42:26;9.07;;;8.15;;
39982;SDS011;25670;44.782;10.356;2023-05-07T04:44:53;7.95;;;7.43;;
39982;SDS011;25670;44.782;10.356;2023-05-07T04:47:21;7.95;;;7.45;;
39982;SDS011;25670;44.782;10.356;2023-05-07T04:49:48;12.10;;;7.50;;
39982;SDS011;25670;44.782;10.356;2023-05-07T04:52:14;8.27;;;7.47;;
39982;SDS011;25670;44.782;10.356;2023-05-07T04:54:41;8.90;;;8.05;;
39982;SDS011;25670;44.782;10.356;2023-05-07T04:57:07;14.93;;;8.15;;
39982;SDS011;25670;44.782;10.356;2023-05-07T04:59:34;12.60;;;8.00;;
39982;SDS011;25670;44.782;10.356;2023-05-07T05:02:01;8.63;;;7.80;;
39982;SDS011;25670;44.782;10.356;2023-05-07T05:04:28;10.27;;;6.43;;
39982;SDS011;25670;44.782;10.356;2023-05-07T05:06:55;8.70;;;5.68;;
39982;SDS011;25670;44.782;10.356;2023-05-07T05:09:22;6.00;;;5.40;;
39982;SDS011;25670;44.782;10.356;2023-05-07T05:11:48;5.28;;;4.82;;
39982;SDS011;25670;44.782;10.356;2023-05-07T05:14:15;5.95;;;4.85;;
39982;SDS011;25670;44.782;10.356;2023-05-07T05:16:42;9.32;;;5.47;;
39982;SDS011;25670;44.782;10.356;2023-05-07T05:19:08;5.43;;;4.97;;
39982;SDS011;25670;44.782;10.356;2023-05-07T05:21:38;6.88;;;5.72;;
39982;SDS011;25670;44.782;10.356;2023-05-07T05:24:07;5.60;;;5.30;;
39982;SDS011;25670;44.782;10.356;2023-05-07T05:26:34;7.38;;;5.72;;
39982;SDS011;25670;44.782;10.356;2023-05-07T05:29:01;6.20;;;5.60;;
39982;SDS011;25670;44.782;10.356;2023-05-07T05:31:30;5.43;;;5.03;;
39982;SDS011;25670;44.782;10.356;2023-05-07T05:33:56;5.90;;;5.50;;
39982;SDS011;25670;44.782;10.356;2023-05-07T05:36:23;5.70;;;5.30;;
39982;SDS011;25670;44.782;10.356;2023-05-07T05:38:55;5.72;;;5.32;;
39982;SDS011;25670;44.782;10.356;2023-05-07T05:41:22;6.57;;;5.40;;
39982;SDS011;25670;44.782;10.356;2023-05-07T05:43:49;5.80;;;5.38;;
39982;SDS011;25670;44.782;10.356;2023-05-07T05:46:16;8.68;;;5.65;;
39982;SDS011;25670;44.782;10.356;2023-05-07T05:48:43;4.22;;;3.92;;
39982;SDS011;25670;44.782;10.356;2023-05-07T05:51:10;4.95;;;4.45;;
39982;SDS011;25670;44.782;10.356;2023-05-07T05:53:37;5.60;;;5.03;;
39982;SDS011;25670;44.782;10.356;2023-05-07T05:56:05;5.38;;;4.80;;
39982;SDS011;25670;44.782;10.356;2023-05-07T05:58:36;7.15;;;4.05;;
39982;SDS011;25670;44.782;10.356;2023-05-07T06:01:06;7.55;;;5.55;;
39982;SDS011;25670;44.782;10.356;2023-05-07T06:03:34;6.47;;;5.97;;
39982;SDS011;25670;44.782;10.356;2023-05-07T06:06:05;7.43;;;6.75;;
39982;SDS011;25670;44.782;10.356;2023-05-07T06:08:32;6.82;;;6.38;;
39982;SDS011;25670;44.782;10.356;2023-05-07T06:11:00;8.43;;;7.60;;
39982;SDS011;25670;44.782;10.356;2023-05-07T06:13:29;8.70;;;7.82;;
39982;SDS011;25670;44.782;10.356;2023-05-07T06:15:56;10.45;;;9.75;;
39982;SDS011;25670;44.782;10.356;2023-05-07T06:18:22;10.93;;;10.02;;
39982;SDS011;25670;44.782;10.356;2023-05-07T06:20:48;16.75;;;13.10;;
39982;SDS011;25670;44.782;10.356;2023-05-07T06:23:23;17.30;;;10.60;;
39982;SDS011;25670;44.782;10.356;2023-05-07T06:25:49;14.27;;;13.10;;
39982;SDS011;25670;44.782;10.356;2023-05-07T06:28:18;16.95;;;14.30;;
39982;SDS011;25670;44.782;10.356;2023-05-07T06:30:46;17.08;;;14.73;;
39982;SDS011;25670;44.782;10.356;2023-05-07T06:33:15;17.08;;;15.40;;
39982;SDS011;25670;44.782;10.356;2023-05-07T06:35:42;16.95;;;15.27;;
39982;SDS011;25670;44.782;10.356;2023-05-07T06:38:08;18.52;;;16.60;;
39982;SDS011;25670;44.782;10.356;2023-05-07T06:40:35;21.08;;;17.67;;
39982;SDS011;25670;44.782;10.356;2023-05-07T06:43:01;24.33;;;20.35;;
39982;SDS011;25670;44.782;10.356;2023-05-07T06:45:35;22.52;;;19.45;;
39982;SDS011;25670;44.782;10.356;2023-05-07T06:48:04;25.50;;;19.95;;
39982;SDS011;25670;44.782;10.356;2023-05-07T06:50:35;21.30;;;19.13;;
39982;SDS011;25670;44.782;10.356;2023-05-07T06:53:01;21.52;;;18.20;;
39982;SDS011;25670;44.782;10.356;2023-05-07T06:55:28;20.08;;;18.08;;
39982;SDS011;25670;44.782;10.356;2023-05-07T06:57:56;27.92;;;18.95;;
39982;SDS011;25670;44.782;10.356;2023-05-07T07:00:27;21.02;;;18.85;;
39982;SDS011;25670;44.782;10.356;2023-05-07T07:02:55;20.85;;;18.63;;
39982;SDS011;25670;44.782;10.356;2023-05-07T07:05:24;20.77;;;18.58;;
39982;SDS011;25670;44.782;10.356;2023-05-07T07:07:51;24.55;;;18.33;;
39982;SDS011;25670;44.782;10.356;2023-05-07T07:10:19;18.95;;;16.90;;
39982;SDS011;25670;44.782;10.356;2023-05-07T07:12:46;17.65;;;15.93;;
39982;SDS011;25670;44.782;10.356;2023-05-07T07:15:13;17.05;;;15.43;;
39982;SDS011;25670;44.782;10.356;2023-05-07T07:17:40;17.42;;;15.70;;
39982;SDS011;25670;44.782;10.356;2023-05-07T07:20:10;16.88;;;15.25;;
39982;SDS011;25670;44.782;10.356;2023-05-07T07:22:36;18.35;;;15.60;;
39982;SDS011;25670;44.782;10.356;2023-05-07T07:25:03;17.33;;;15.00;;
39982;SDS011;25670;44.782;10.356;2023-05-07T07:27:30;15.82;;;13.90;;
39982;SDS011;25670;44.782;10.356;2023-05-07T07:29:57;15.27;;;14.05;;
39982;SDS011;25670;44.782;10.356;2023-05-07T07:32:24;16.13;;;14.63;;
39982;SDS011;25670;44.782;10.356;2023-05-07T07:34:53;21.30;;;13.52;;
39982;SDS011;25670;44.782;10.356;2023-05-07T07:37:19;15.15;;;13.85;;
39982;SDS011;25670;44.782;10.356;2023-05-07T07:39:45;14.07;;;12.77;;
39982;SDS011;25670;44.782;10.356;2023-05-07T07:42:23;14.27;;;12.82;;
39982;SDS011;25670;44.782;10.356;2023-05-07T07:44:50;14.45;;;12.20;;
39982;SDS011;25670;44.782;10.356;2023-05-07T07:47:19;12.07;;;11.02;;
39982;SDS011;25670;44.782;10.356;2023-05-07T07:49:47;12.00;;;11.07;;
39982;SDS011;25670;44.782;10.356;2023-05-07T07:52:14;12.18;;;11.18;;
39982;SDS011;25670;44.782;10.356;2023-05-07T07:54:41;12.88;;;11.43;;
39982;SDS011;25670;44.782;10.356;2023-05-07T07:57:08;12.68;;;11.45;;
39982;SDS011;25670;44.782;10.356;2023-05-07T07:59:35;15.32;;;11.63;;
39982;SDS011;25670;44.782;10.356;2023-05-07T08:02:03;13.02;;;12.02;;
39982;SDS011;25670;44.782;10.356;2023-05-07T08:04:30;13.52;;;12.18;;
39982;SDS011;25670;44.782;10.356;2023-05-07T08:07:01;13.95;;;12.73;;
39982;SDS011;25670;44.782;10.356;2023-05-07T08:09:29;13.32;;;11.88;;
39982;SDS011;25670;44.782;10.356;2023-05-07T08:11:58;14.32;;;12.95;;
39982;SDS011;25670;44.782;10.356;2023-05-07T08:14:25;18.70;;;12.93;;
39982;SDS011;25670;44.782;10.356;2023-05-07T08:16:53;13.32;;;12.38;;
39982;SDS011;25670;44.782;10.356;2023-05-07T08:19:21;14.75;;;12.05;;
39982;SDS011;25670;44.782;10.356;2023-05-07T08:21:47;14.18;;;12.88;;
39982;SDS011;25670;44.782;10.356;2023-05-07T08:24:14;14.52;;;13.05;;
39982;SDS011;25670;44.782;10.356;2023-05-07T08:26:40;12.57;;;11.35;;
39982;SDS011;25670;44.782;10.356;2023-05-07T08:29:09;12.88;;;11.70;;
39982;SDS011;25670;44.782;10.356;2023-05-07T08:31:35;11.75;;;10.95;;
39982;SDS011;25670;44.782;10.356;2023-05-07T08:34:03;12.18;;;11.15;;
39982;SDS011;25670;44.782;10.356;2023-05-07T08:36:29;12.13;;;11.23;;
39982;SDS011;25670;44.782;10.356;2023-05-07T08:38:56;12.10;;;11.27;;
39982;SDS011;25670;44.782;10.356;2023-05-07T08:41:22;12.55;;;11.50;;
39982;SDS011;25670;44.782;10.356;2023-05-07T08:43:49;12.65;;;11.23;;
39982;SDS011;25670;44.782;10.356;2023-05-07T08:46:18;18.08;;;11.52;;
39982;SDS011;25670;44.782;10.356;2023-05-07T08:48:49;11.48;;;10.63;;
39982;SDS011;25670;44.782;10.356;2023-05-07T08:51:17;11.55;;;10.80;;
39982;SDS011;25670;44.782;10.356;2023-05-07T08:53:46;11.57;;;10.60;;
39982;SDS011;25670;44.782;10.356;2023-05-07T08:56:19;11.52;;;10.73;;
39982;SDS011;25670;44.782;10.356;2023-05-07T08:58:47;13.77;;;12.57;;
39982;SDS011;25670;44.782;10.356;2023-05-07T09:01:14;11.85;;;10.88;;
39982;SDS011;25670;44.782;10.356;2023-05-07T09:03:44;10.20;;;9.40;;
39982;SDS011;25670;44.782;10.356;2023-05-07T09:06:12;9.82;;;9.18;;
39982;SDS011;25670;44.782;10.356;2023-05-07T09:08:38;9.25;;;8.70;;
39982;SDS011;25670;44.782;10.356;2023-05-07T09:11:06;9.05;;;8.50;;
39982;SDS011;25670;44.782;10.356;2023-05-07T09:13:33;7.88;;;7.38;;
39982;SDS011;25670;44.782;10.356;2023-05-07T09:16:10;9.93;;;7.85;;
39982;SDS011;25670;44.782;10.356;2023-05-07T09:18:42;7.25;;;6.70;;
39982;SDS011;25670;44.782;10.356;2023-05-07T09:21:11;9.07;;;7.32;;
39982;SDS011;25670;44.782;10.356;2023-05-07T09:23:40;7.80;;;7.20;;
39982;SDS011;25670;44.782;10.356;2023-05-07T09:26:07;7.38;;;6.90;;
39982;SDS011;25670;44.782;10.356;2023-05-07T09:28:38;10.20;;;8.32;;
39982;SDS011;25670;44.782;10.356;2023-05-07T09:31:06;7.78;;;7.38;;
39982;SDS011;25670;44.782;10.356;2023-05-07T09:33:33;8.50;;;7.93;;
39982;SDS011;25670;44.782;10.356;2023-05-07T09:36:05;8.98;;;8.27;;
39982;SDS011;25670;44.782;10.356;2023-05-07T09:38:34;8.02;;;7.43;;
39982;SDS011;25670;44.782;10.356;2023-05-07T09:41:05;8.30;;;7.70;;
39982;SDS011;25670;44.782;10.356;2023-05-07T09:43:47;6.40;;;6.00;;
39982;SDS011;25670;44.782;10.356;2023-05-07T09:46:20;6.53;;;6.03;;
39982;SDS011;25670;44.782;10.356;2023-05-07T09:48:53;7.32;;;6.18;;
39982;SDS011;25670;44.782;10.356;2023-05-07T09:51:57;7.05;;;6.38;;
39982;SDS011;25670;44.782;10.356;2023-05-07T09:54:19;6.45;;;6.07;;
39982;SDS011;25670;44.782;10.356;2023-05-07T09:56:49;6.70;;;5.05;;
39982;SDS011;25670;44.782;10.356;2023-05-07T09:59:21;5.95;;;5.63;;
39982;SDS011;25670;44.782;10.356;2023-05-07T10:01:49;6.63;;;6.22;;
39982;SDS011;25670;44.782;10.356;2023-05-07T10:04:18;7.05;;;5.35;;
39982;SDS011;25670;44.782;10.356;2023-05-07T10:06:46;7.20;;;5.72;;
39982;SDS011;25670;44.782;10.356;2023-05-07T10:09:13;6.82;;;6.22;;
39982;SDS011;25670;44.782;10.356;2023-05-07T10:11:41;8.55;;;7.80;;
39982;SDS011;25670;44.782;10.356;2023-05-07T10:14:08;7.38;;;6.47;;
39982;SDS011;25670;44.782;10.356;2023-05-07T10:16:36;5.55;;;5.15;;
39982;SDS011;25670;44.782;10.356;2023-05-07T10:19:07;4.75;;;4.40;;
39982;SDS011;25670;44.782;10.356;2023-05-07T10:21:40;6.35;;;5.15;;
39982;SDS011;25670;44.782;10.356;2023-05-07T10:24:19;5.10;;;4.80;;
39982;SDS011;25670;44.782;10.356;2023-05-07T10:26:50;5.18;;;4.88;;
39982;SDS011;25670;44.782;10.356;2023-05-07T10:32:27;7.07;;;6.57;;
39982;SDS011;25670;44.782;10.356;2023-05-07T10:34:57;7.00;;;6.32;;
39982;SDS011;25670;44.782;10.356;2023-05-07T10:39:55;7.57;;;7.07;;
39982;SDS011;25670;44.782;10.356;2023-05-07T10:42:24;7.72;;;7.22;;
39982;SDS011;25670;44.782;10.356;2023-05-07T10:44:53;9.05;;;8.35;;
39982;SDS011;25670;44.782;10.356;2023-05-07T10:47:24;8.60;;;8.10;;
39982;SDS011;25670;44.782;10.356;2023-05-07T10:52:26;12.15;;;11.13;;
39982;SDS011;25670;44.782;10.356;2023-05-07T11:00:55;10.35;;;9.65;;
39982;SDS011;25670;44.782;10.356;2023-05-07T11:03:28;11.65;;;10.00;;
39982;SDS011;25670;44.782;10.356;2023-05-07T11:11:51;7.93;;;7.17;;
39982;SDS011;25670;44.782;10.356;2023-05-07T11:17:23;8.07;;;7.55;;
39982;SDS011;25670;44.782;10.356;2023-05-07T11:19:57;8.70;;;8.07;;
39982;SDS011;25670;44.782;10.356;2023-05-07T11:22:47;9.27;;;7.45;;
39982;SDS011;25670;44.782;10.356;2023-05-07T11:25:19;9.30;;;8.80;;
39982;SDS011;25670;44.782;10.356;2023-05-07T11:27:51;11.45;;;10.43;;
39982;SDS011;25670;44.782;10.356;2023-05-07T11:30:19;12.35;;;11.32;;
39982;SDS011;25670;44.782;10.356;2023-05-07T11:32:47;45.95;;;25.58;;
39982;SDS011;25670;44.782;10.356;2023-05-07T11:35:15;9.57;;;8.88;;
39982;SDS011;25670;44.782;10.356;2023-05-07T11:37:45;58.55;;;33.38;;
39982;SDS011;25670;44.782;10.356;2023-05-07T11:40:13;10.80;;;9.75;;
39982;SDS011;25670;44.782;10.356;2023-05-07T11:42:40;8.55;;;8.05;;
39982;SDS011;25670;44.782;10.356;2023-05-07T11:45:09;8.98;;;8.10;;
39982;SDS011;25670;44.782;10.356;2023-05-07T11:47:37;8.75;;;8.00;;
39982;SDS011;25670;44.782;10.356;2023-05-07T11:50:06;7.82;;;6.65;;
39982;SDS011;25670;44.782;10.356;2023-05-07T11:52:33;7.57;;;7.00;;
39982;SDS011;25670;44.782;10.356;2023-05-07T11:55:01;11.60;;;8.23;;
39982;SDS011;25670;44.782;10.356;2023-05-07T11:57:29;8.02;;;7.53;;
39982;SDS011;25670;44.782;10.356;2023-05-07T11:59:59;7.05;;;6.65;;
39982;SDS011;25670;44.782;10.356;2023-05-07T12:02:27;6.65;;;6.03;;
39982;SDS011;25670;44.782;10.356;2023-05-07T12:04:54;7.63;;;7.22;;
39982;SDS011;25670;44.782;10.356;2023-05-07T12:07:20;7.45;;;6.75;;
39982;SDS011;25670;44.782;10.356;2023-05-07T12:09:49;7.57;;;7.07;;
39982;SDS011;25670;44.782;10.356;2023-05-07T12:12:16;4.57;;;4.28;;
39982;SDS011;25670;44.782;10.356;2023-05-07T12:14:43;6.70;;;6.07;;
39982;SDS011;25670;44.782;10.356;2023-05-07T12:17:11;7.15;;;6.55;;
39982;SDS011;25670;44.782;10.356;2023-05-07T12:19:39;7.47;;;6.97;;
39982;SDS011;25670;44.782;10.356;2023-05-07T12:22:10;6.32;;;5.82;;
39982;SDS011;25670;44.782;10.356;2023-05-07T12:24:47;7.35;;;6.75;;
39982;SDS011;25670;44.782;10.356;2023-05-07T12:27:23;8.82;;;6.38;;
39982;SDS011;25670;44.782;10.356;2023-05-07T12:29:50;6.45;;;6.05;;
39982;SDS011;25670;44.782;10.356;2023-05-07T12:32:17;6.05;;;5.75;;
39982;SDS011;25670;44.782;10.356;2023-05-07T12:34:47;7.78;;;6.90;;
39982;SDS011;25670;44.782;10.356;2023-05-07T12:39:48;6.82;;;6.25;;
39982;SDS011;25670;44.782;10.356;2023-05-07T12:42:16;4.93;;;4.57;;
39982;SDS011;25670;44.782;10.356;2023-05-07T12:44:45;3.97;;;3.67;;
39982;SDS011;25670;44.782;10.356;2023-05-07T12:47:12;5.43;;;4.85;;
39982;SDS011;25670;44.782;10.356;2023-05-07T12:49:38;5.10;;;4.80;;
39982;SDS011;25670;44.782;10.356;2023-05-07T12:52:05;4.88;;;4.53;;
39982;SDS011;25670;44.782;10.356;2023-05-07T12:54:32;6.72;;;6.13;;
39982;SDS011;25670;44.782;10.356;2023-05-07T12:57:01;4.70;;;4.32;;
39982;SDS011;25670;44.782;10.356;2023-05-07T12:59:32;4.82;;;4.43;;
39982;SDS011;25670;44.782;10.356;2023-05-07T13:01:59;5.90;;;5.25;;
39982;SDS011;25670;44.782;10.356;2023-05-07T13:04:25;7.85;;;7.15;;
39982;SDS011;25670;44.782;10.356;2023-05-07T13:06:52;8.88;;;7.43;;
39982;SDS011;25670;44.782;10.356;2023-05-07T13:09:18;6.45;;;5.25;;
39982;SDS011;25670;44.782;10.356;2023-05-07T13:11:44;4.47;;;3.92;;
39982;SDS011;25670;44.782;10.356;2023-05-07T13:14:10;4.15;;;3.85;;
39982;SDS011;25670;44.782;10.356;2023-05-07T13:16:36;5.13;;;4.78;;
39982;SDS011;25670;44.782;10.356;2023-05-07T13:19:02;6.15;;;5.60;;
39982;SDS011;25670;44.782;10.356;2023-05-07T13:21:29;5.25;;;4.57;;
39982;SDS011;25670;44.782;10.356;2023-05-07T13:23:58;5.95;;;5.60;;
39982;SDS011;25670;44.782;10.356;2023-05-07T13:26:25;5.68;;;5.28;;
39982;SDS011;25670;44.782;10.356;2023-05-07T13:28:52;4.75;;;4.50;;
39982;SDS011;25670;44.782;10.356;2023-05-07T13:31:19;5.05;;;4.75;;
39982;SDS011;25670;44.782;10.356;2023-05-07T13:33:46;5.07;;;4.68;;
39982;SDS011;25670;44.782;10.356;2023-05-07T13:36:12;5.53;;;5.22;;
39982;SDS011;25670;44.782;10.356;2023-05-07T13:38:39;4.38;;;4.07;;
39982;SDS011;25670;44.782;10.356;2023-05-07T13:41:05;3.92;;;3.72;;
39982;SDS011;25670;44.782;10.356;2023-05-07T13:43:32;2.83;;;2.72;;
39982;SDS011;25670;44.782;10.356;2023-05-07T13:45:59;3.63;;;3.35;;
39982;SDS011;25670;44.782;10.356;2023-05-07T13:48:26;5.03;;;4.55;;
39982;SDS011;25670;44.782;10.356;2023-05-07T13:50:54;4.30;;;3.92;;
39982;SDS011;25670;44.782;10.356;2023-05-07T13:53:20;3.17;;;2.95;;
39982;SDS011;25670;44.782;10.356;2023-05-07T13:55:46;8.90;;;3.33;;
39982;SDS011;25670;44.782;10.356;2023-05-07T13:58:13;3.35;;;3.05;;
39982;SDS011;25670;44.782;10.356;2023-05-07T14:00:41;3.47;;;3.28;;
39982;SDS011;25670;44.782;10.356;2023-05-07T14:03:08;3.65;;;3.45;;
39982;SDS011;25670;44.782;10.356;2023-05-07T14:05:34;4.78;;;2.53;;
39982;SDS011;25670;44.782;10.356;2023-05-07T14:08:01;3.13;;;2.92;;
39982;SDS011;25670;44.782;10.356;2023-05-07T14:10:29;4.68;;;3.15;;
39982;SDS011;25670;44.782;10.356;2023-05-07T14:12:59;4.00;;;2.80;;
39982;SDS011;25670;44.782;10.356;2023-05-07T14:15:25;3.70;;;3.40;;
39982;SDS011;25670;44.782;10.356;2023-05-07T14:17:52;3.70;;;3.38;;
39982;SDS011;25670;44.782;10.356;2023-05-07T14:20:19;4.20;;;2.45;;
39982;SDS011;25670;44.782;10.356;2023-05-07T14:22:46;3.45;;;3.08;;
39982;SDS011;25670;44.782;10.356;2023-05-07T14:25:12;4.72;;;2.88;;
39982;SDS011;25670;44.782;10.356;2023-05-07T14:27:38;5.07;;;2.42;;
39982;SDS011;25670;44.782;10.356;2023-05-07T14:30:05;3.13;;;2.97;;
39982;SDS011;25670;44.782;10.356;2023-05-07T14:32:32;3.85;;;3.42;;
39982;SDS011;25670;44.782;10.356;2023-05-07T14:34:58;3.85;;;2.85;;
39982;SDS011;25670;44.782;10.356;2023-05-07T14:37:25;3.78;;;3.35;;
39982;SDS011;25670;44.782;10.356;2023-05-07T14:39:51;3.95;;;3.08;;
39982;SDS011;25670;44.782;10.356;2023-05-07T14:42:17;4.75;;;3.10;;
39982;SDS011;25670;44.782;10.356;2023-05-07T14:44:44;2.65;;;2.50;;
39982;SDS011;25670;44.782;10.356;2023-05-07T14:47:12;2.95;;;2.75;;
39982;SDS011;25670;44.782;10.356;2023-05-07T14:49:38;6.57;;;3.17;;
39982;SDS011;25670;44.782;10.356;2023-05-07T14:52:06;2.72;;;2.53;;
39982;SDS011;25670;44.782;10.356;2023-05-07T14:54:34;4.90;;;2.83;;
39982;SDS011;25670;44.782;10.356;2023-05-07T14:57:01;4.57;;;3.33;;